Terminal Aerodrome Forecast
Issued by NWS

Home | Current Version | Previous Version | Text Only | Print | Product List | Glossary On
Versions: 1 2 3 4 5 6 7 8 9 10 11 12
000
FTUS42 KTBW 181720
TAFPIE
TAF
KPIE 181720Z 1818/1918 03005KT P6SM FEW040 SCT250
     FM182000 30007KT P6SM FEW050 SCT250
     FM190100 VRB03KT P6SM SCT250
     FM190800 VRB03KT 3SM BR BKN010=

USA.gov is the U.S. government's official web portal to all federal, state and local government web resources and services.